sensor_id;sensor_type;location;lat;lon;timestamp;temperature;humidity
28071;DHT22;15383;48.408;9.968;2023-06-10T00:00:41;20.00;67.10
28071;DHT22;15383;48.408;9.968;2023-06-10T00:03:07;20.00;67.20
28071;DHT22;15383;48.408;9.968;2023-06-10T00:05:34;20.00;67.20
28071;DHT22;15383;48.408;9.968;2023-06-10T00:08:00;20.00;67.10
28071;DHT22;15383;48.408;9.968;2023-06-10T00:10:32;20.00;67.20
28071;DHT22;15383;48.408;9.968;2023-06-10T00:13:00;20.00;67.30
28071;DHT22;15383;48.408;9.968;2023-06-10T00:15:26;20.00;67.30
28071;DHT22;15383;48.408;9.968;2023-06-10T00:17:53;20.00;67.50
28071;DHT22;15383;48.408;9.968;2023-06-10T00:20:20;20.00;67.40
28071;DHT22;15383;48.408;9.968;2023-06-10T00:22:55;19.90;67.50
28071;DHT22;15383;48.408;9.968;2023-06-10T00:25:22;19.90;67.50
28071;DHT22;15383;48.408;9.968;2023-06-10T00:27:48;19.90;67.70
28071;DHT22;15383;48.408;9.968;2023-06-10T00:30:14;19.90;67.70
28071;DHT22;15383;48.408;9.968;2023-06-10T00:32:40;19.90;67.70
28071;DHT22;15383;48.408;9.968;2023-06-10T00:35:07;19.90;67.70
28071;DHT22;15383;48.408;9.968;2023-06-10T00:37:32;19.90;67.70
28071;DHT22;15383;48.408;9.968;2023-06-10T00:40:00;19.90;67.80
28071;DHT22;15383;48.408;9.968;2023-06-10T00:42:26;19.90;67.70
28071;DHT22;15383;48.408;9.968;2023-06-10T00:44:51;19.90;67.70
28071;DHT22;15383;48.408;9.968;2023-06-10T00:47:17;19.90;67.70
28071;DHT22;15383;48.408;9.968;2023-06-10T00:49:43;19.90;67.80
28071;DHT22;15383;48.408;9.968;2023-06-10T00:52:10;19.90;67.80
28071;DHT22;15383;48.408;9.968;2023-06-10T00:54:39;19.90;67.80
28071;DHT22;15383;48.408;9.968;2023-06-10T00:57:05;19.90;67.90
28071;DHT22;15383;48.408;9.968;2023-06-10T00:59:31;19.90;67.80
28071;DHT22;15383;48.408;9.968;2023-06-10T01:01:57;19.90;68.00
28071;DHT22;15383;48.408;9.968;2023-06-10T01:04:26;19.90;68.10
28071;DHT22;15383;48.408;9.968;2023-06-10T01:11:46;19.90;68.10
28071;DHT22;15383;48.408;9.968;2023-06-10T01:14:13;19.80;68.00
28071;DHT22;15383;48.408;9.968;2023-06-10T01:16:42;19.80;68.00
28071;DHT22;15383;48.408;9.968;2023-06-10T01:19:08;19.80;68.10
28071;DHT22;15383;48.408;9.968;2023-06-10T01:21:33;19.80;68.10
28071;DHT22;15383;48.408;9.968;2023-06-10T01:23:59;19.80;68.00
28071;DHT22;15383;48.408;9.968;2023-06-10T01:26:26;19.80;68.10
28071;DHT22;15383;48.408;9.968;2023-06-10T01:29:03;19.80;68.20
28071;DHT22;15383;48.408;9.968;2023-06-10T01:34:01;19.80;68.90
28071;DHT22;15383;48.408;9.968;2023-06-10T01:36:28;19.80;68.20
28071;DHT22;15383;48.408;9.968;2023-06-10T01:38:54;19.80;68.20
28071;DHT22;15383;48.408;9.968;2023-06-10T01:41:21;19.80;68.30
28071;DHT22;15383;48.408;9.968;2023-06-10T01:43:48;19.80;68.30
28071;DHT22;15383;48.408;9.968;2023-06-10T01:46:14;19.80;68.40
28071;DHT22;15383;48.408;9.968;2023-06-10T01:48:41;19.80;68.40
28071;DHT22;15383;48.408;9.968;2023-06-10T01:51:07;19.80;68.40
28071;DHT22;15383;48.408;9.968;2023-06-10T01:53:32;19.80;68.50
28071;DHT22;15383;48.408;9.968;2023-06-10T01:55:58;19.80;68.40
28071;DHT22;15383;48.408;9.968;2023-06-10T01:58:23;19.80;68.40
28071;DHT22;15383;48.408;9.968;2023-06-10T02:00:49;19.80;68.50
28071;DHT22;15383;48.408;9.968;2023-06-10T02:03:14;19.80;68.60
28071;DHT22;15383;48.408;9.968;2023-06-10T02:05:40;19.80;68.70
28071;DHT22;15383;48.408;9.968;2023-06-10T02:08:06;19.80;68.40
28071;DHT22;15383;48.408;9.968;2023-06-10T02:10:31;19.80;68.50
28071;DHT22;15383;48.408;9.968;2023-06-10T02:12:57;19.80;68.60
28071;DHT22;15383;48.408;9.968;2023-06-10T02:15:23;19.80;68.70
28071;DHT22;15383;48.408;9.968;2023-06-10T02:17:48;19.80;68.60
28071;DHT22;15383;48.408;9.968;2023-06-10T02:20:17;19.80;68.70
28071;DHT22;15383;48.408;9.968;2023-06-10T02:22:42;19.70;68.60
28071;DHT22;15383;48.408;9.968;2023-06-10T02:25:08;19.70;68.70
28071;DHT22;15383;48.408;9.968;2023-06-10T02:27:34;19.70;68.70
28071;DHT22;15383;48.408;9.968;2023-06-10T02:30:00;19.70;68.60
28071;DHT22;15383;48.408;9.968;2023-06-10T02:32:26;19.70;68.80
28071;DHT22;15383;48.408;9.968;2023-06-10T02:34:52;19.70;68.70
28071;DHT22;15383;48.408;9.968;2023-06-10T02:37:18;19.70;68.70
28071;DHT22;15383;48.408;9.968;2023-06-10T02:39:44;19.70;68.90
28071;DHT22;15383;48.408;9.968;2023-06-10T02:42:10;19.70;68.80
28071;DHT22;15383;48.408;9.968;2023-06-10T02:44:36;19.70;68.70
28071;DHT22;15383;48.408;9.968;2023-06-10T02:47:01;19.70;68.90
28071;DHT22;15383;48.408;9.968;2023-06-10T02:49:27;19.70;69.00
28071;DHT22;15383;48.408;9.968;2023-06-10T02:51:53;19.70;68.90
28071;DHT22;15383;48.408;9.968;2023-06-10T02:54:20;19.70;68.90
28071;DHT22;15383;48.408;9.968;2023-06-10T02:56:45;19.70;69.00
28071;DHT22;15383;48.408;9.968;2023-06-10T02:59:13;19.70;69.00
28071;DHT22;15383;48.408;9.968;2023-06-10T03:01:39;19.70;69.10
28071;DHT22;15383;48.408;9.968;2023-06-10T03:04:05;19.70;68.90
28071;DHT22;15383;48.408;9.968;2023-06-10T03:06:31;19.70;69.10
28071;DHT22;15383;48.408;9.968;2023-06-10T03:09:02;19.70;69.20
28071;DHT22;15383;48.408;9.968;2023-06-10T03:11:32;19.70;69.10
28071;DHT22;15383;48.408;9.968;2023-06-10T03:13:58;19.70;69.20
28071;DHT22;15383;48.408;9.968;2023-06-10T03:16:24;19.70;69.20
28071;DHT22;15383;48.408;9.968;2023-06-10T03:18:52;19.70;69.30
28071;DHT22;15383;48.408;9.968;2023-06-10T03:21:18;19.70;69.40
28071;DHT22;15383;48.408;9.968;2023-06-10T03:23:43;19.70;69.30
28071;DHT22;15383;48.408;9.968;2023-06-10T03:26:10;19.70;69.40
28071;DHT22;15383;48.408;9.968;2023-06-10T03:28:37;19.70;69.50
28071;DHT22;15383;48.408;9.968;2023-06-10T03:31:02;19.60;69.20
28071;DHT22;15383;48.408;9.968;2023-06-10T03:33:28;19.60;69.50
28071;DHT22;15383;48.408;9.968;2023-06-10T03:35:53;19.60;69.50
28071;DHT22;15383;48.408;9.968;2023-06-10T03:38:21;19.60;69.50
28071;DHT22;15383;48.408;9.968;2023-06-10T03:40:47;19.60;69.60
28071;DHT22;15383;48.408;9.968;2023-06-10T03:43:13;19.60;69.50
28071;DHT22;15383;48.408;9.968;2023-06-10T03:45:38;19.70;69.80
28071;DHT22;15383;48.408;9.968;2023-06-10T03:48:04;19.60;69.60
28071;DHT22;15383;48.408;9.968;2023-06-10T03:50:31;19.60;69.60
28071;DHT22;15383;48.408;9.968;2023-06-10T03:52:57;19.60;69.60
28071;DHT22;15383;48.408;9.968;2023-06-10T03:55:23;19.60;69.70
28071;DHT22;15383;48.408;9.968;2023-06-10T03:57:49;19.60;69.70
28071;DHT22;15383;48.408;9.968;2023-06-10T04:00:15;19.60;69.70
28071;DHT22;15383;48.408;9.968;2023-06-10T04:02:41;19.60;69.70
28071;DHT22;15383;48.408;9.968;2023-06-10T04:05:14;19.60;69.80
28071;DHT22;15383;48.408;9.968;2023-06-10T04:07:40;19.60;69.90
28071;DHT22;15383;48.408;9.968;2023-06-10T04:10:14;19.60;69.80
28071;DHT22;15383;48.408;9.968;2023-06-10T04:12:40;19.60;70.00
28071;DHT22;15383;48.408;9.968;2023-06-10T04:15:11;19.70;70.20
28071;DHT22;15383;48.408;9.968;2023-06-10T04:17:38;19.60;70.20
28071;DHT22;15383;48.408;9.968;2023-06-10T04:20:05;19.60;70.40
28071;DHT22;15383;48.408;9.968;2023-06-10T04:22:52;19.60;70.50
28071;DHT22;15383;48.408;9.968;2023-06-10T04:25:19;19.50;70.40
28071;DHT22;15383;48.408;9.968;2023-06-10T04:28:04;19.60;70.70
28071;DHT22;15383;48.408;9.968;2023-06-10T04:30:50;19.60;70.70
28071;DHT22;15383;48.408;9.968;2023-06-10T04:33:37;19.60;70.80
28071;DHT22;15383;48.408;9.968;2023-06-10T04:36:26;19.50;71.10
28071;DHT22;15383;48.408;9.968;2023-06-10T04:39:13;19.60;71.20
28071;DHT22;15383;48.408;9.968;2023-06-10T04:41:58;19.50;71.00
28071;DHT22;15383;48.408;9.968;2023-06-10T04:44:28;19.50;71.00
28071;DHT22;15383;48.408;9.968;2023-06-10T04:47:16;19.50;71.30
28071;DHT22;15383;48.408;9.968;2023-06-10T04:49:43;19.50;71.40
28071;DHT22;15383;48.408;9.968;2023-06-10T04:52:13;19.50;71.40
28071;DHT22;15383;48.408;9.968;2023-06-10T04:54:47;19.50;71.40
28071;DHT22;15383;48.408;9.968;2023-06-10T04:57:17;19.50;71.60
28071;DHT22;15383;48.408;9.968;2023-06-10T04:59:43;19.60;71.70
28071;DHT22;15383;48.408;9.968;2023-06-10T05:02:12;19.60;72.00
28071;DHT22;15383;48.408;9.968;2023-06-10T05:04:41;19.50;71.90
28071;DHT22;15383;48.408;9.968;2023-06-10T05:07:15;19.50;71.90
28071;DHT22;15383;48.408;9.968;2023-06-10T05:09:43;19.60;72.20
28071;DHT22;15383;48.408;9.968;2023-06-10T05:12:09;19.50;73.00
28071;DHT22;15383;48.408;9.968;2023-06-10T05:14:53;19.50;72.40
28071;DHT22;15383;48.408;9.968;2023-06-10T05:17:19;19.60;72.40
28071;DHT22;15383;48.408;9.968;2023-06-10T05:20:04;19.60;72.40
28071;DHT22;15383;48.408;9.968;2023-06-10T05:22:31;19.60;72.60
28071;DHT22;15383;48.408;9.968;2023-06-10T05:24:57;19.60;72.70
28071;DHT22;15383;48.408;9.968;2023-06-10T05:27:45;19.60;72.70
28071;DHT22;15383;48.408;9.968;2023-06-10T05:30:16;19.60;72.80
28071;DHT22;15383;48.408;9.968;2023-06-10T05:32:44;19.60;73.00
28071;DHT22;15383;48.408;9.968;2023-06-10T05:35:10;19.60;73.20
28071;DHT22;15383;48.408;9.968;2023-06-10T05:37:36;19.60;72.90
28071;DHT22;15383;48.408;9.968;2023-06-10T05:40:02;19.70;72.80
28071;DHT22;15383;48.408;9.968;2023-06-10T05:42:30;19.70;73.00
28071;DHT22;15383;48.408;9.968;2023-06-10T05:44:58;19.70;73.10
28071;DHT22;15383;48.408;9.968;2023-06-10T05:47:25;19.70;73.00
28071;DHT22;15383;48.408;9.968;2023-06-10T05:49:51;19.70;73.00
28071;DHT22;15383;48.408;9.968;2023-06-10T05:52:18;19.70;73.00
28071;DHT22;15383;48.408;9.968;2023-06-10T05:54:52;19.70;72.90
28071;DHT22;15383;48.408;9.968;2023-06-10T05:57:17;19.80;72.90
28071;DHT22;15383;48.408;9.968;2023-06-10T05:59:44;19.70;73.00
28071;DHT22;15383;48.408;9.968;2023-06-10T06:02:10;19.70;72.80
28071;DHT22;15383;48.408;9.968;2023-06-10T06:04:36;19.80;72.80
28071;DHT22;15383;48.408;9.968;2023-06-10T06:07:01;19.80;72.90
28071;DHT22;15383;48.408;9.968;2023-06-10T06:09:27;19.80;73.00
28071;DHT22;15383;48.408;9.968;2023-06-10T06:11:53;19.80;72.80
28071;DHT22;15383;48.408;9.968;2023-06-10T06:14:19;19.90;72.80
28071;DHT22;15383;48.408;9.968;2023-06-10T06:16:44;19.80;72.60
28071;DHT22;15383;48.408;9.968;2023-06-10T06:19:10;19.90;73.10
28071;DHT22;15383;48.408;9.968;2023-06-10T06:21:36;19.90;73.20
28071;DHT22;15383;48.408;9.968;2023-06-10T06:24:02;20.00;73.20
28071;DHT22;15383;48.408;9.968;2023-06-10T06:26:28;20.00;73.10
28071;DHT22;15383;48.408;9.968;2023-06-10T06:28:54;20.00;73.00
28071;DHT22;15383;48.408;9.968;2023-06-10T06:31:20;20.00;72.90
28071;DHT22;15383;48.408;9.968;2023-06-10T06:33:46;20.10;73.00
28071;DHT22;15383;48.408;9.968;2023-06-10T06:36:12;20.10;73.10
28071;DHT22;15383;48.408;9.968;2023-06-10T06:38:37;20.10;73.00
28071;DHT22;15383;48.408;9.968;2023-06-10T06:41:03;20.10;72.90
28071;DHT22;15383;48.408;9.968;2023-06-10T06:43:31;20.20;72.80
28071;DHT22;15383;48.408;9.968;2023-06-10T06:45:56;20.10;72.50
28071;DHT22;15383;48.408;9.968;2023-06-10T06:48:23;20.20;72.40
28071;DHT22;15383;48.408;9.968;2023-06-10T06:50:49;20.30;72.40
28071;DHT22;15383;48.408;9.968;2023-06-10T06:53:15;20.30;72.30
28071;DHT22;15383;48.408;9.968;2023-06-10T06:55:40;20.30;72.20
28071;DHT22;15383;48.408;9.968;2023-06-10T06:58:06;20.30;72.10
28071;DHT22;15383;48.408;9.968;2023-06-10T07:00:32;20.40;72.00
28071;DHT22;15383;48.408;9.968;2023-06-10T07:02:58;20.50;71.90
28071;DHT22;15383;48.408;9.968;2023-06-10T07:05:24;20.50;71.80
28071;DHT22;15383;48.408;9.968;2023-06-10T07:07:53;20.50;71.70
28071;DHT22;15383;48.408;9.968;2023-06-10T07:10:21;20.60;71.60
28071;DHT22;15383;48.408;9.968;2023-06-10T07:12:47;20.60;71.60
28071;DHT22;15383;48.408;9.968;2023-06-10T07:15:13;20.60;71.40
28071;DHT22;15383;48.408;9.968;2023-06-10T07:17:39;20.70;71.20
28071;DHT22;15383;48.408;9.968;2023-06-10T07:20:04;20.70;71.20
28071;DHT22;15383;48.408;9.968;2023-06-10T07:22:30;20.80;71.00
28071;DHT22;15383;48.408;9.968;2023-06-10T07:24:57;20.80;71.00
28071;DHT22;15383;48.408;9.968;2023-06-10T07:27:22;20.80;70.90
28071;DHT22;15383;48.408;9.968;2023-06-10T07:29:48;20.90;70.90
28071;DHT22;15383;48.408;9.968;2023-06-10T07:32:14;20.90;70.90
28071;DHT22;15383;48.408;9.968;2023-06-10T07:34:39;20.90;70.80
28071;DHT22;15383;48.408;9.968;2023-06-10T07:37:05;21.00;70.70
28071;DHT22;15383;48.408;9.968;2023-06-10T07:39:31;21.00;70.60
28071;DHT22;15383;48.408;9.968;2023-06-10T07:41:56;21.00;70.70
28071;DHT22;15383;48.408;9.968;2023-06-10T07:44:22;21.10;70.60
28071;DHT22;15383;48.408;9.968;2023-06-10T07:46:49;21.20;70.70
28071;DHT22;15383;48.408;9.968;2023-06-10T07:49:15;21.20;70.60
28071;DHT22;15383;48.408;9.968;2023-06-10T07:51:41;21.20;70.20
28071;DHT22;15383;48.408;9.968;2023-06-10T07:57:03;21.40;71.60
28071;DHT22;15383;48.408;9.968;2023-06-10T07:59:40;21.50;72.00
28071;DHT22;15383;48.408;9.968;2023-06-10T08:02:43;21.60;72.00
28071;DHT22;15383;48.408;9.968;2023-06-10T08:05:28;21.70;72.10
28071;DHT22;15383;48.408;9.968;2023-06-10T08:11:12;21.70;71.80
28071;DHT22;15383;48.408;9.968;2023-06-10T08:13:57;21.80;71.80
28071;DHT22;15383;48.408;9.968;2023-06-10T08:16:46;21.90;71.60
28071;DHT22;15383;48.408;9.968;2023-06-10T08:19:34;21.90;71.50
28071;DHT22;15383;48.408;9.968;2023-06-10T08:22:19;22.00;71.50
28071;DHT22;15383;48.408;9.968;2023-06-10T08:25:05;22.00;71.40
28071;DHT22;15383;48.408;9.968;2023-06-10T08:30:56;22.10;71.30
28071;DHT22;15383;48.408;9.968;2023-06-10T08:33:34;22.10;71.20
28071;DHT22;15383;48.408;9.968;2023-06-10T08:36:20;22.20;71.00
28071;DHT22;15383;48.408;9.968;2023-06-10T08:39:08;22.20;70.70
28071;DHT22;15383;48.408;9.968;2023-06-10T08:41:40;22.20;70.60
28071;DHT22;15383;48.408;9.968;2023-06-10T08:44:38;22.20;70.50
28071;DHT22;15383;48.408;9.968;2023-06-10T08:47:10;22.20;70.60
28071;DHT22;15383;48.408;9.968;2023-06-10T08:49:54;22.30;70.00
28071;DHT22;15383;48.408;9.968;2023-06-10T08:52:46;22.30;69.80
28071;DHT22;15383;48.408;9.968;2023-06-10T08:55:21;22.30;69.90
28071;DHT22;15383;48.408;9.968;2023-06-10T08:58:02;22.30;70.40
28071;DHT22;15383;48.408;9.968;2023-06-10T09:00:52;22.30;69.50
28071;DHT22;15383;48.408;9.968;2023-06-10T09:03:37;22.40;68.80
28071;DHT22;15383;48.408;9.968;2023-06-10T09:09:14;22.50;69.50
28071;DHT22;15383;48.408;9.968;2023-06-10T09:12:06;22.50;69.30
28071;DHT22;15383;48.408;9.968;2023-06-10T09:14:52;22.50;68.90
28071;DHT22;15383;48.408;9.968;2023-06-10T09:17:58;22.60;69.30
28071;DHT22;15383;48.408;9.968;2023-06-10T09:20:50;22.50;69.10
28071;DHT22;15383;48.408;9.968;2023-06-10T09:23:37;22.60;70.70
28071;DHT22;15383;48.408;9.968;2023-06-10T09:26:07;22.70;69.70
28071;DHT22;15383;48.408;9.968;2023-06-10T09:28:34;22.70;69.00
28071;DHT22;15383;48.408;9.968;2023-06-10T09:31:40;22.70;69.10
28071;DHT22;15383;48.408;9.968;2023-06-10T09:34:26;22.70;68.70
28071;DHT22;15383;48.408;9.968;2023-06-10T09:36:52;22.70;68.50
28071;DHT22;15383;48.408;9.968;2023-06-10T09:39:21;22.70;68.90
28071;DHT22;15383;48.408;9.968;2023-06-10T09:47:37;22.80;68.80
28071;DHT22;15383;48.408;9.968;2023-06-10T09:50:21;22.70;68.30
28071;DHT22;15383;48.408;9.968;2023-06-10T09:56:18;22.70;68.20
28071;DHT22;15383;48.408;9.968;2023-06-10T09:59:00;22.80;67.90
28071;DHT22;15383;48.408;9.968;2023-06-10T10:01:30;22.80;67.80
28071;DHT22;15383;48.408;9.968;2023-06-10T10:04:22;22.80;67.60
28071;DHT22;15383;48.408;9.968;2023-06-10T10:07:03;22.80;67.70
28071;DHT22;15383;48.408;9.968;2023-06-10T10:09:49;22.80;67.50
28071;DHT22;15383;48.408;9.968;2023-06-10T10:12:35;22.70;66.50
28071;DHT22;15383;48.408;9.968;2023-06-10T10:15:28;22.70;65.50
28071;DHT22;15383;48.408;9.968;2023-06-10T10:18:32;22.70;65.50
28071;DHT22;15383;48.408;9.968;2023-06-10T10:21:20;22.60;66.40
28071;DHT22;15383;48.408;9.968;2023-06-10T10:24:20;22.40;67.00
28071;DHT22;15383;48.408;9.968;2023-06-10T10:27:08;22.40;67.00
28071;DHT22;15383;48.408;9.968;2023-06-10T10:29:57;22.40;67.60
28071;DHT22;15383;48.408;9.968;2023-06-10T10:32:26;22.40;67.60
28071;DHT22;15383;48.408;9.968;2023-06-10T10:35:19;22.30;67.40
28071;DHT22;15383;48.408;9.968;2023-06-10T10:37:52;22.30;68.40
28071;DHT22;15383;48.408;9.968;2023-06-10T10:40:17;22.30;68.80
28071;DHT22;15383;48.408;9.968;2023-06-10T10:43:12;22.30;68.00
28071;DHT22;15383;48.408;9.968;2023-06-10T10:45:39;22.10;67.80
28071;DHT22;15383;48.408;9.968;2023-06-10T10:48:37;22.20;67.70
28071;DHT22;15383;48.408;9.968;2023-06-10T10:51:26;22.20;67.50
28071;DHT22;15383;48.408;9.968;2023-06-10T10:54:15;22.20;67.50
28071;DHT22;15383;48.408;9.968;2023-06-10T10:57:28;22.20;67.10
28071;DHT22;15383;48.408;9.968;2023-06-10T11:00:09;22.20;67.00
28071;DHT22;15383;48.408;9.968;2023-06-10T11:03:16;22.10;68.10
28071;DHT22;15383;48.408;9.968;2023-06-10T11:06:03;22.10;67.00
28071;DHT22;15383;48.408;9.968;2023-06-10T11:16:50;22.00;67.50
28071;DHT22;15383;48.408;9.968;2023-06-10T11:19:37;22.00;67.90
28071;DHT22;15383;48.408;9.968;2023-06-10T11:22:25;22.00;68.00
28071;DHT22;15383;48.408;9.968;2023-06-10T11:25:38;22.00;68.30
28071;DHT22;15383;48.408;9.968;2023-06-10T11:28:18;22.00;68.30
28071;DHT22;15383;48.408;9.968;2023-06-10T11:31:02;22.00;67.80
28071;DHT22;15383;48.408;9.968;2023-06-10T11:33:33;22.00;67.70
28071;DHT22;15383;48.408;9.968;2023-06-10T11:36:22;21.90;67.60
28071;DHT22;15383;48.408;9.968;2023-06-10T11:39:12;21.90;67.60
28071;DHT22;15383;48.408;9.968;2023-06-10T11:41:43;21.90;67.50
28071;DHT22;15383;48.408;9.968;2023-06-10T11:44:55;21.90;67.50
28071;DHT22;15383;48.408;9.968;2023-06-10T11:47:40;21.90;67.80
28071;DHT22;15383;48.408;9.968;2023-06-10T11:53:23;21.90;67.80
28071;DHT22;15383;48.408;9.968;2023-06-10T12:01:21;21.90;68.70
28071;DHT22;15383;48.408;9.968;2023-06-10T12:03:58;21.80;68.60
28071;DHT22;15383;48.408;9.968;2023-06-10T12:06:25;21.70;68.60
28071;DHT22;15383;48.408;9.968;2023-06-10T12:08:55;21.80;69.00
28071;DHT22;15383;48.408;9.968;2023-06-10T12:11:22;21.80;68.80
28071;DHT22;15383;48.408;9.968;2023-06-10T12:13:49;21.80;69.00
28071;DHT22;15383;48.408;9.968;2023-06-10T12:16:15;21.80;69.50
28071;DHT22;15383;48.408;9.968;2023-06-10T12:18:42;21.80;69.10
28071;DHT22;15383;48.408;9.968;2023-06-10T12:21:23;21.80;69.00
28071;DHT22;15383;48.408;9.968;2023-06-10T12:24:04;21.80;69.20
28071;DHT22;15383;48.408;9.968;2023-06-10T12:26:43;21.80;69.70
28071;DHT22;15383;48.408;9.968;2023-06-10T12:29:17;21.80;69.70
28071;DHT22;15383;48.408;9.968;2023-06-10T12:32:03;21.90;69.30
28071;DHT22;15383;48.408;9.968;2023-06-10T12:35:02;21.90;69.50
28071;DHT22;15383;48.408;9.968;2023-06-10T12:37:32;21.90;69.60
28071;DHT22;15383;48.408;9.968;2023-06-10T12:40:03;21.80;69.50
28071;DHT22;15383;48.408;9.968;2023-06-10T12:42:31;21.80;69.20
28071;DHT22;15383;48.408;9.968;2023-06-10T12:45:03;21.80;69.40
28071;DHT22;15383;48.408;9.968;2023-06-10T12:47:33;21.80;69.50
28071;DHT22;15383;48.408;9.968;2023-06-10T12:50:00;21.80;69.70
28071;DHT22;15383;48.408;9.968;2023-06-10T12:52:27;21.90;71.50
28071;DHT22;15383;48.408;9.968;2023-06-10T12:54:53;21.90;70.20
28071;DHT22;15383;48.408;9.968;2023-06-10T12:57:20;21.90;69.80
28071;DHT22;15383;48.408;9.968;2023-06-10T12:59:46;21.80;69.80
28071;DHT22;15383;48.408;9.968;2023-06-10T13:02:20;21.80;69.90
28071;DHT22;15383;48.408;9.968;2023-06-10T13:05:03;21.70;69.90
28071;DHT22;15383;48.408;9.968;2023-06-10T13:07:29;21.80;70.20
28071;DHT22;15383;48.408;9.968;2023-06-10T13:09:56;21.70;70.10
28071;DHT22;15383;48.408;9.968;2023-06-10T13:12:43;21.80;70.10
28071;DHT22;15383;48.408;9.968;2023-06-10T13:15:10;21.80;70.10
28071;DHT22;15383;48.408;9.968;2023-06-10T13:17:38;21.70;69.90
28071;DHT22;15383;48.408;9.968;2023-06-10T13:20:06;21.80;70.00
28071;DHT22;15383;48.408;9.968;2023-06-10T13:22:33;21.70;69.80
28071;DHT22;15383;48.408;9.968;2023-06-10T13:25:18;21.80;69.80
28071;DHT22;15383;48.408;9.968;2023-06-10T13:27:44;21.80;69.70
28071;DHT22;15383;48.408;9.968;2023-06-10T13:30:12;21.70;70.20
28071;DHT22;15383;48.408;9.968;2023-06-10T13:32:38;21.70;70.40
28071;DHT22;15383;48.408;9.968;2023-06-10T13:35:04;21.80;70.10
28071;DHT22;15383;48.408;9.968;2023-06-10T13:37:29;21.80;69.80
28071;DHT22;15383;48.408;9.968;2023-06-10T13:39:55;21.70;69.50
28071;DHT22;15383;48.408;9.968;2023-06-10T13:42:21;21.70;69.50
28071;DHT22;15383;48.408;9.968;2023-06-10T13:44:47;21.70;70.00
28071;DHT22;15383;48.408;9.968;2023-06-10T13:47:22;21.70;69.70
28071;DHT22;15383;48.408;9.968;2023-06-10T13:49:53;21.70;68.40
28071;DHT22;15383;48.408;9.968;2023-06-10T13:52:19;21.70;68.30
28071;DHT22;15383;48.408;9.968;2023-06-10T13:54:48;21.70;68.20
28071;DHT22;15383;48.408;9.968;2023-06-10T13:57:15;21.70;68.40
28071;DHT22;15383;48.408;9.968;2023-06-10T13:59:41;21.60;68.50
28071;DHT22;15383;48.408;9.968;2023-06-10T14:02:06;21.70;68.50
28071;DHT22;15383;48.408;9.968;2023-06-10T14:04:32;21.70;69.00
28071;DHT22;15383;48.408;9.968;2023-06-10T14:06:58;21.70;69.00
28071;DHT22;15383;48.408;9.968;2023-06-10T14:09:25;21.70;68.80
28071;DHT22;15383;48.408;9.968;2023-06-10T14:11:50;21.70;69.00
28071;DHT22;15383;48.408;9.968;2023-06-10T14:14:17;21.60;69.00
28071;DHT22;15383;48.408;9.968;2023-06-10T14:16:42;21.70;69.00
28071;DHT22;15383;48.408;9.968;2023-06-10T14:19:18;21.70;68.90
28071;DHT22;15383;48.408;9.968;2023-06-10T14:21:44;21.70;68.70
28071;DHT22;15383;48.408;9.968;2023-06-10T14:24:10;21.70;68.70
28071;DHT22;15383;48.408;9.968;2023-06-10T14:26:36;21.70;69.20
28071;DHT22;15383;48.408;9.968;2023-06-10T14:29:04;21.80;69.20
28071;DHT22;15383;48.408;9.968;2023-06-10T14:31:30;21.70;69.20
28071;DHT22;15383;48.408;9.968;2023-06-10T14:33:56;21.70;69.20
28071;DHT22;15383;48.408;9.968;2023-06-10T14:36:24;21.70;69.30
28071;DHT22;15383;48.408;9.968;2023-06-10T14:38:50;21.60;69.60
28071;DHT22;15383;48.408;9.968;2023-06-10T14:41:19;21.60;69.40
28071;DHT22;15383;48.408;9.968;2023-06-10T14:43:48;21.60;69.00
28071;DHT22;15383;48.408;9.968;2023-06-10T14:46:14;21.60;68.70
28071;DHT22;15383;48.408;9.968;2023-06-10T14:48:56;21.60;69.30
28071;DHT22;15383;48.408;9.968;2023-06-10T14:51:22;21.60;68.70
28071;DHT22;15383;48.408;9.968;2023-06-10T14:53:50;21.60;68.70
28071;DHT22;15383;48.408;9.968;2023-06-10T14:56:35;21.60;68.90
28071;DHT22;15383;48.408;9.968;2023-06-10T14:59:04;21.60;69.10
28071;DHT22;15383;48.408;9.968;2023-06-10T15:01:50;21.60;69.50
28071;DHT22;15383;48.408;9.968;2023-06-10T15:04:16;21.70;69.70
28071;DHT22;15383;48.408;9.968;2023-06-10T15:06:42;21.60;69.70
28071;DHT22;15383;48.408;9.968;2023-06-10T15:09:08;21.60;69.60
28071;DHT22;15383;48.408;9.968;2023-06-10T15:11:54;21.60;69.80
28071;DHT22;15383;48.408;9.968;2023-06-10T15:14:36;21.60;69.70
28071;DHT22;15383;48.408;9.968;2023-06-10T15:17:04;21.60;69.40
28071;DHT22;15383;48.408;9.968;2023-06-10T15:19:50;21.60;69.10
28071;DHT22;15383;48.408;9.968;2023-06-10T15:22:36;21.60;69.00
28071;DHT22;15383;48.408;9.968;2023-06-10T15:25:02;21.60;69.90
28071;DHT22;15383;48.408;9.968;2023-06-10T15:27:28;21.60;69.30
28071;DHT22;15383;48.408;9.968;2023-06-10T15:30:18;21.60;69.10
28071;DHT22;15383;48.408;9.968;2023-06-10T15:33:01;21.60;69.00
28071;DHT22;15383;48.408;9.968;2023-06-10T15:35:32;21.60;68.90
28071;DHT22;15383;48.408;9.968;2023-06-10T15:37:58;21.60;68.40
28071;DHT22;15383;48.408;9.968;2023-06-10T15:40:24;21.60;68.40
28071;DHT22;15383;48.408;9.968;2023-06-10T15:42:49;21.60;68.10
28071;DHT22;15383;48.408;9.968;2023-06-10T15:45:15;21.60;67.60
28071;DHT22;15383;48.408;9.968;2023-06-10T15:47:40;21.60;67.40
28071;DHT22;15383;48.408;9.968;2023-06-10T15:50:08;21.60;67.10
28071;DHT22;15383;48.408;9.968;2023-06-10T15:52:33;21.60;67.30
28071;DHT22;15383;48.408;9.968;2023-06-10T15:54:59;21.60;66.90
28071;DHT22;15383;48.408;9.968;2023-06-10T15:57:25;21.60;66.90
28071;DHT22;15383;48.408;9.968;2023-06-10T15:59:51;21.60;67.00
28071;DHT22;15383;48.408;9.968;2023-06-10T16:02:16;21.60;67.10
28071;DHT22;15383;48.408;9.968;2023-06-10T16:04:42;21.60;67.80
28071;DHT22;15383;48.408;9.968;2023-06-10T16:07:11;21.60;66.90
28071;DHT22;15383;48.408;9.968;2023-06-10T16:09:39;21.60;66.80
28071;DHT22;15383;48.408;9.968;2023-06-10T16:12:05;21.60;67.00
28071;DHT22;15383;48.408;9.968;2023-06-10T16:14:31;21.60;67.10
28071;DHT22;15383;48.408;9.968;2023-06-10T16:16:56;21.60;67.40
28071;DHT22;15383;48.408;9.968;2023-06-10T16:19:23;21.60;67.60
28071;DHT22;15383;48.408;9.968;2023-06-10T16:21:49;21.60;67.50
28071;DHT22;15383;48.408;9.968;2023-06-10T16:24:15;21.60;67.60
28071;DHT22;15383;48.408;9.968;2023-06-10T16:26:41;21.60;67.80
28071;DHT22;15383;48.408;9.968;2023-06-10T16:29:06;21.60;67.40
28071;DHT22;15383;48.408;9.968;2023-06-10T16:31:32;21.50;67.40
28071;DHT22;15383;48.408;9.968;2023-06-10T16:33:58;21.50;67.40
28071;DHT22;15383;48.408;9.968;2023-06-10T16:36:24;21.50;67.40
28071;DHT22;15383;48.408;9.968;2023-06-10T16:38:50;21.60;67.30
28071;DHT22;15383;48.408;9.968;2023-06-10T16:41:16;21.50;67.20
28071;DHT22;15383;48.408;9.968;2023-06-10T16:43:41;21.50;67.20